Time;durP1;ratioP1;P1;durP2;ratioP2;P2;SDS_P1;SDS_P2;PMS_P1;PMS_P2;Temp;Humidity;BMP_temperature;BMP_pressure;BME280_temperature;BME280_humidity;BME280_pressure;Samples;Min_cycle;Max_cycle;Signal;HPM_P1;HPM_P2
2023/07/13 00:01:55;;;;;;;4.05;2.20;;;;;;;23.07;53.27;97434.94;10510152;28;20111;-76
2023/07/13 00:07:19;;;;;;;4.70;1.92;;;;;;;23.06;52.53;97439.16;10506313;28;20087;-75
2023/07/13 00:12:40;;;;;;;5.28;2.17;;;;;;;23.12;52.63;97447.06;10538667;28;20098;-75
2023/07/13 00:18:03;;;;;;;4.97;2.50;;;;;;;23.18;52.28;97443.59;10509955;28;20036;-76
2023/07/13 00:23:23;;;;;;;6.88;2.60;;;;;;;23.24;52.06;97446.50;10509342;28;20534;-75
2023/07/13 00:28:44;;;;;;;7.65;2.63;;;;;;;23.22;52.27;97437.94;10538063;28;20123;-76
2023/07/13 00:34:05;;;;;;;4.45;3.00;;;;;;;23.20;52.73;97427.25;10509113;28;20111;-74
2023/07/13 00:39:25;;;;;;;5.35;3.28;;;;;;;23.11;53.35;97417.19;10511209;28;20060;-76
2023/07/13 00:45:11;;;;;;;5.82;2.83;;;;;;;23.03;54.59;97405.69;10545442;28;20044;-76
2023/07/13 00:50:32;;;;;;;5.70;2.80;;;;;;;23.00;54.31;97401.38;10545428;28;20055;-76
2023/07/13 00:55:53;;;;;;;5.47;3.17;;;;;;;22.98;54.85;97393.53;10545162;28;20043;-76
2023/07/13 01:01:15;;;;;;;4.95;2.92;;;;;;;22.96;55.23;97395.63;10516338;28;20063;-74
2023/07/13 01:06:37;;;;;;;5.32;3.17;;;;;;;22.99;55.52;97394.97;10515808;28;20059;-76
2023/07/13 01:11:59;;;;;;;4.75;2.95;;;;;;;22.97;55.71;97391.34;10515848;28;20096;-76
2023/07/13 01:17:20;;;;;;;5.60;3.47;;;;;;;22.92;56.99;97384.91;10501439;28;20048;-76
2023/07/13 01:22:40;;;;;;;8.25;3.40;;;;;;;22.90;56.82;97384.88;10514921;28;20474;-76
2023/07/13 01:28:02;;;;;;;8.02;3.80;;;;;;;22.88;57.80;97379.19;10528764;28;20067;-76
2023/07/13 01:33:24;;;;;;;7.80;3.58;;;;;;;22.83;58.04;97392.59;10514555;28;20115;-76
2023/07/13 01:38:45;;;;;;;4.95;3.38;;;;;;;22.77;58.58;97372.56;10514458;28;20474;-76
2023/07/13 01:44:05;;;;;;;5.82;3.78;;;;;;;22.71;59.28;97374.63;10514166;28;20120;-75
2023/07/13 01:49:26;;;;;;;11.27;3.95;;;;;;;22.64;59.62;97384.47;10527796;28;20158;-75
2023/07/13 01:54:47;;;;;;;5.53;4.07;;;;;;;22.58;60.63;97379.41;10527605;28;20064;-75
2023/07/13 02:00:11;;;;;;;5.07;3.53;;;;;;;22.54;61.14;97391.47;10527514;28;20048;-75
2023/07/13 02:05:41;;;;;;;5.22;3.45;;;;;;;22.49;61.39;97384.28;10501498;28;20052;-77
2023/07/13 02:11:02;;;;;;;7.55;3.58;;;;;;;22.38;61.82;97381.97;10513387;28;20474;-76
2023/07/13 02:16:23;;;;;;;7.07;3.65;;;;;;;22.28;62.17;97374.72;10526561;28;20059;-76
2023/07/13 02:21:43;;;;;;;4.88;3.72;;;;;;;22.24;63.20;97379.63;10512687;28;20112;-77
2023/07/13 02:27:04;;;;;;;8.10;4.40;;;;;;;22.17;63.26;97395.84;10541325;28;20186;-76
2023/07/13 02:32:26;;;;;;;6.38;3.80;;;;;;;22.15;63.58;97393.00;10498366;28;20135;-77
2023/07/13 02:37:46;;;;;;;5.32;3.63;;;;;;;22.11;64.29;97395.78;10511990;28;20040;-76
2023/07/13 02:43:07;;;;;;;4.72;3.83;;;;;;;22.08;65.26;97402.09;10525658;28;20114;-76
2023/07/13 02:48:27;;;;;;;8.98;4.70;;;;;;;22.00;64.61;97414.75;10511464;28;20072;-76
2023/07/13 02:53:48;;;;;;;6.28;3.50;;;;;;;21.89;64.96;97415.94;10525520;28;20106;-76
2023/07/13 02:59:10;;;;;;;5.88;3.97;;;;;;;21.76;65.68;97430.63;10511273;28;20166;-75
2023/07/13 03:04:31;;;;;;;9.07;4.00;;;;;;;21.77;65.78;97426.38;10509821;28;20123;-76
2023/07/13 03:09:56;;;;;;;7.65;4.28;;;;;;;21.73;66.72;97432.72;10510934;28;20078;-76
2023/07/13 03:15:19;;;;;;;7.15;3.97;;;;;;;21.75;66.75;97432.75;10510899;28;20064;-76
2023/07/13 03:20:41;;;;;;;6.53;3.70;;;;;;;21.72;66.93;97448.31;10496952;28;20258;-76
2023/07/13 03:26:06;;;;;;;7.90;3.75;;;;;;;21.75;66.92;97452.63;10524534;28;20048;-76
2023/07/13 03:31:34;;;;;;;3.85;2.22;;;;;;;21.81;66.28;97475.50;10524302;28;20075;-76
2023/07/13 03:36:55;;;;;;;4.95;1.80;;;;;;;21.83;65.39;97486.88;10523996;28;20506;-77
2023/07/13 03:42:15;;;;;;;4.18;1.75;;;;;;;21.82;64.12;97499.66;10523734;28;20068;-75
2023/07/13 03:47:37;;;;;;;3.53;1.40;;;;;;;21.67;62.39;97497.91;10496155;28;20137;-75
2023/07/13 03:52:58;;;;;;;5.47;1.33;;;;;;;21.49;60.38;97495.44;10509598;28;20075;-77
2023/07/13 03:58:39;;;;;;;3.15;1.08;;;;;;;21.42;60.18;97493.84;10495746;28;20063;-76
2023/07/13 04:04:18;;;;;;;2.92;0.85;;;;;;;21.43;59.46;97513.06;10523275;28;20072;-76
2023/07/13 04:09:39;;;;;;;5.20;1.30;;;;;;;21.43;58.32;97521.59;10523496;28;20063;-75
2023/07/13 04:15:00;;;;;;;2.20;0.82;;;;;;;21.45;58.83;97528.72;10512648;28;20528;-76
2023/07/13 04:20:21;;;;;;;2.08;1.00;;;;;;;21.51;58.11;97523.13;10531415;28;20123;-76
2023/07/13 04:25:49;;;;;;;2.55;0.98;;;;;;;21.62;57.43;97533.34;10531400;28;20507;-76
2023/07/13 04:31:09;;;;;;;3.63;0.90;;;;;;;21.54;56.29;97536.72;10503925;28;20079;-75
2023/07/13 04:36:30;;;;;;;1.42;0.73;;;;;;;21.40;56.06;97542.78;10502770;28;20447;-75
2023/07/13 04:41:51;;;;;;;5.32;1.27;;;;;;;21.51;55.46;97549.41;10530617;28;20440;-76
2023/07/13 04:47:12;;;;;;;2.47;1.10;;;;;;;21.60;54.74;97547.47;10545674;28;20067;-76
2023/07/13 04:52:32;;;;;;;2.72;1.02;;;;;;;21.71;54.33;97546.28;10530241;28;20570;-76
2023/07/13 04:57:53;;;;;;;2.78;1.05;;;;;;;21.87;53.95;97548.72;10515929;28;20040;-76
2023/07/13 05:03:14;;;;;;;3.67;1.20;;;;;;;22.05;53.87;97554.06;10529530;28;20090;-76
2023/07/13 05:08:35;;;;;;;3.95;0.98;;;;;;;21.95;53.61;97561.00;10529723;28;20120;-76
2023/07/13 05:13:56;;;;;;;3.95;1.13;;;;;;;21.89;53.54;97560.13;10529339;28;20055;-76
2023/07/13 05:19:16;;;;;;;4.13;1.23;;;;;;;21.84;53.63;97564.31;10501291;28;20170;-75
2023/07/13 05:24:37;;;;;;;2.25;0.98;;;;;;;22.16;53.24;97567.09;10514344;28;20470;-75
2023/07/13 05:29:58;;;;;;;4.40;1.02;;;;;;;22.61;52.86;97573.59;10528704;28;20137;-76
2023/07/13 05:35:19;;;;;;;3.50;1.10;;;;;;;23.00;52.29;97578.56;10514511;28;20099;-75
2023/07/13 05:40:39;;;;;;;5.30;0.93;;;;;;;23.42;51.51;97580.59;10528117;28;20116;-75
2023/07/13 05:46:00;;;;;;;2.45;1.00;;;;;;;24.03;50.95;97590.00;10528062;28;20040;-75
2023/07/13 05:51:21;;;;;;;3.85;1.20;;;;;;;24.62;49.72;97593.50;10513832;28;20115;-75
2023/07/13 05:56:41;;;;;;;4.40;1.10;;;;;;;25.05;49.20;97588.19;10513831;28;20473;-75
2023/07/13 06:02:02;;;;;;;2.42;1.10;;;;;;;25.34;48.40;97595.53;10513341;28;20232;-76
2023/07/13 06:07:23;;;;;;;2.88;1.10;;;;;;;25.69;47.44;97587.91;10513025;28;20142;-76
2023/07/13 06:12:44;;;;;;;3.17;1.40;;;;;;;26.17;46.32;97603.16;10526944;28;20076;-75
2023/07/13 06:18:05;;;;;;;3.95;0.95;;;;;;;26.56;45.56;97609.03;10512517;28;20450;-78
2023/07/13 06:23:26;;;;;;;2.33;1.10;;;;;;;26.82;44.34;97617.63;10526656;28;20115;-76
2023/07/13 06:28:46;;;;;;;3.63;1.13;;;;;;;27.23;43.76;97614.84;10512287;28;20068;-75
2023/07/13 06:34:07;;;;;;;2.03;0.90;;;;;;;27.96;42.50;97603.22;10512172;28;20496;-76
2023/07/13 06:39:27;;;;;;;3.53;1.00;;;;;;;28.52;41.97;97610.88;10511610;28;20072;-78
2023/07/13 06:44:48;;;;;;;2.55;0.60;;;;;;;29.12;40.58;97613.38;10525733;28;20660;-78
2023/07/13 06:50:09;;;;;;;1.00;0.40;;;;;;;29.80;39.44;97620.66;10525539;28;20124;-77
2023/07/13 06:55:30;;;;;;;1.90;0.63;;;;;;;29.91;38.61;97632.75;10511273;28;20044;-77
2023/07/13 07:00:51;;;;;;;3.03;0.80;;;;;;;30.32;37.43;97627.28;10510714;28;20040;-77
2023/07/13 07:06:16;;;;;;;4.07;1.23;;;;;;;30.97;34.85;97629.25;10524828;28;20071;-77
2023/07/13 07:11:37;;;;;;;1.88;1.02;;;;;;;31.63;34.55;97635.38;10511239;28;20282;-77
2023/07/13 07:17:06;;;;;;;4.18;0.70;;;;;;;31.89;34.07;97636.41;10524280;28;20040;-78
2023/07/13 07:22:27;;;;;;;1.73;0.63;;;;;;;32.70;33.21;97640.50;10510242;28;20588;-76
2023/07/13 07:27:48;;;;;;;3.13;0.70;;;;;;;32.07;32.42;97656.25;10510461;28;20063;-77
2023/07/13 07:33:12;;;;;;;3.22;0.90;;;;;;;31.90;31.55;97660.91;10539127;28;20044;-78
2023/07/13 07:38:33;;;;;;;3.25;0.68;;;;;;;31.48;31.82;97660.19;10496201;28;20064;-77
2023/07/13 07:43:54;;;;;;;3.08;0.60;;;;;;;32.13;31.59;97664.06;10509795;28;20040;-77
2023/07/13 07:49:15;;;;;;;1.17;0.57;;;;;;;32.75;30.72;97676.53;10526203;28;20044;-77
2023/07/13 07:54:36;;;;;;;2.00;0.68;;;;;;;31.71;29.93;97674.94;10518454;28;20051;-77
2023/07/13 08:00:00;;;;;;;2.85;0.60;;;;;;;30.34;30.30;97676.19;10532777;28;20064;-77
2023/07/13 08:05:35;;;;;;;1.65;0.90;;;;;;;30.46;31.02;97684.69;10522191;28;20084;-76
2023/07/13 08:11:07;;;;;;;6.30;1.00;;;;;;;30.80;30.19;97685.72;10546889;28;20055;-78
2023/07/13 08:16:32;;;;;;;2.58;0.68;;;;;;;30.10;30.73;97691.56;10505066;28;20044;-77
2023/07/13 08:21:53;;;;;;;3.40;0.85;;;;;;;31.23;29.93;97699.53;10517463;28;20438;-77
2023/07/13 08:27:14;;;;;;;1.83;0.70;;;;;;;32.16;28.45;97692.16;10517331;28;20044;-77
2023/07/13 08:32:36;;;;;;;2.37;0.93;;;;;;;32.60;28.21;97695.63;10503224;28;20162;-77
2023/07/13 08:37:56;;;;;;;1.63;0.50;;;;;;;33.90;27.78;97691.91;10502602;28;20097;-77
2023/07/13 08:43:20;;;;;;;1.40;0.50;;;;;;;34.80;25.24;97683.59;10516795;28;20040;-76
2023/07/13 08:48:51;;;;;;;1.33;0.65;;;;;;;33.41;25.00;97689.53;10530386;28;20047;-77
2023/07/13 08:54:34;;;;;;;3.10;0.60;;;;;;;33.25;25.40;97684.81;10516163;28;20512;-76
2023/07/13 08:59:55;;;;;;;2.90;0.65;;;;;;;33.74;25.29;97693.00;10517833;28;20289;-76
2023/07/13 09:05:20;;;;;;;2.10;0.52;;;;;;;34.52;23.70;97696.75;10529315;28;20051;-76
2023/07/13 09:10:43;;;;;;;3.42;0.95;;;;;;;33.25;23.14;97708.66;10516243;28;20101;-76
2023/07/13 09:16:05;;;;;;;3.88;0.93;;;;;;;32.95;23.93;97706.47;10529387;28;20111;-77
2023/07/13 09:21:32;;;;;;;2.15;0.60;;;;;;;33.50;23.11;97708.81;10487541;28;20044;-76
2023/07/13 09:26:53;;;;;;;1.83;0.50;;;;;;;33.86;22.64;97721.63;10515259;28;20066;-77
2023/07/13 09:32:15;;;;;;;2.55;0.60;;;;;;;34.13;22.01;97723.88;10528858;28;20048;-75
2023/07/13 09:37:35;;;;;;;3.17;0.52;;;;;;;33.32;22.77;97726.59;10528602;28;20060;-76
2023/07/13 09:42:56;;;;;;;3.85;0.95;;;;;;;33.34;23.09;97737.38;10514140;28;20401;-76
2023/07/13 09:48:18;;;;;;;1.23;0.40;;;;;;;32.03;24.18;97737.13;10528036;28;20050;-75
2023/07/13 09:53:38;;;;;;;;;;;;;;;33.01;23.37;97746.81;10513955;28;20051;-76
2023/07/13 09:58:59;;;;;;;2.10;0.50;;;;;;;34.57;22.16;97744.41;10527298;28;20377;-76
2023/07/13 10:04:35;;;;;;;1.80;0.40;;;;;;;34.25;20.94;97758.28;10527095;28;20405;-76
2023/07/13 10:09:57;;;;;;;2.42;0.40;;;;;;;33.99;21.36;97739.44;10526863;28;20050;-76
2023/07/13 10:15:21;;;;;;;3.13;0.50;;;;;;;34.04;20.58;97734.94;10512506;28;20060;-76
2023/07/13 10:20:45;;;;;;;1.65;0.43;;;;;;;34.79;20.53;97725.66;10513587;28;20047;-76
2023/07/13 10:26:25;;;;;;;2.60;0.50;;;;;;;34.92;20.22;97730.34;10500513;28;20044;-76
2023/07/13 10:31:46;;;;;;;2.80;0.50;;;;;;;35.96;19.33;97724.16;10498564;28;20040;-76
2023/07/13 10:37:09;;;;;;;3.58;0.40;;;;;;;36.59;19.06;97735.75;10498025;28;20036;-76
2023/07/13 10:42:35;;;;;;;2.47;0.70;;;;;;;35.98;18.56;97720.47;10512006;28;20166;-76
2023/07/13 10:47:56;;;;;;;1.88;0.40;;;;;;;34.48;19.98;97726.56;10498050;28;20462;-76
2023/07/13 10:53:27;;;;;;;1.88;0.50;;;;;;;34.22;20.04;97715.66;10511275;28;20414;-76
2023/07/13 10:58:48;;;;;;;2.38;0.50;;;;;;;33.35;20.87;97712.78;10512559;28;20040;-76
2023/07/13 11:04:12;;;;;;;3.70;0.40;;;;;;;33.40;21.55;97708.34;10483086;28;20090;-76
2023/07/13 11:09:39;;;;;;;1.95;0.47;;;;;;;33.66;21.01;97713.47;10510852;28;20055;-76
2023/07/13 11:15:08;;;;;;;1.92;0.40;;;;;;;34.60;20.84;97702.31;10511209;28;20063;-76
2023/07/13 11:20:39;;;;;;;1.65;0.40;;;;;;;34.18;20.13;97696.22;10525321;28;20040;-76
2023/07/13 11:26:02;;;;;;;4.00;0.45;;;;;;;34.49;20.66;97690.31;10510391;28;20036;-76
2023/07/13 11:31:23;;;;;;;2.65;0.40;;;;;;;35.29;19.81;97688.59;10497046;28;20051;-76
2023/07/13 11:36:45;;;;;;;2.55;0.40;;;;;;;35.95;19.25;97684.28;10524215;28;20044;-76
2023/07/13 11:42:09;;;;;;;1.00;0.35;;;;;;;34.92;19.34;97686.84;10536408;28;20032;-76
2023/07/13 11:47:32;;;;;;;3.28;0.82;;;;;;;33.50;19.46;97690.75;10480438;28;20044;-76
2023/07/13 11:52:53;;;;;;;1.33;0.45;;;;;;;31.80;20.73;97687.06;10467399;28;20045;-76
2023/07/13 11:58:18;;;;;;;3.70;0.40;;;;;;;30.75;22.20;97690.81;10482269;28;20056;-76
2023/07/13 12:03:40;;;;;;;1.52;0.43;;;;;;;30.26;22.78;97690.69;10467907;28;20131;-77
2023/07/13 12:09:18;;;;;;;1.08;0.40;;;;;;;29.44;24.15;97693.59;10468068;28;20044;-76
2023/07/13 12:14:40;;;;;;;2.33;0.60;;;;;;;29.29;24.56;97687.25;10470392;28;20052;-76
2023/07/13 12:20:08;;;;;;;1.23;0.50;;;;;;;29.99;24.66;97695.28;10481900;28;20075;-76
2023/07/13 12:25:31;;;;;;;6.53;0.40;;;;;;;31.60;23.43;97680.16;10481700;28;20389;-76
2023/07/13 12:30:52;;;;;;;3.30;0.60;;;;;;;32.71;22.74;97688.16;10481388;28;20406;-76
2023/07/13 12:36:14;;;;;;;1.35;0.50;;;;;;;32.70;21.89;97686.03;10457006;28;20048;-76
2023/07/13 12:41:34;;;;;;;3.40;0.88;;;;;;;31.90;21.73;97672.44;10474928;28;20396;-76
2023/07/13 12:47:04;;;;;;;4.47;0.40;;;;;;;31.69;21.97;97682.91;10488828;28;20044;-76
2023/07/13 12:52:35;;;;;;;1.98;0.60;;;;;;;31.02;22.24;97676.03;10475590;28;20490;-76
2023/07/13 12:57:58;;;;;;;1.80;0.50;;;;;;;30.83;23.06;97675.59;10459273;28;20048;-76
2023/07/13 13:03:38;;;;;;;3.95;0.60;;;;;;;31.60;23.07;97662.84;10446925;28;20550;-76
2023/07/13 13:09:01;;;;;;;2.80;0.60;;;;;;;32.92;21.79;97671.13;10460238;28;20040;-76
2023/07/13 13:14:22;;;;;;;3.58;0.63;;;;;;;33.12;20.83;97669.94;10460246;28;20051;-75
2023/07/13 13:19:44;;;;;;;2.33;0.68;;;;;;;33.24;21.18;97672.53;10473430;28;20398;-75
2023/07/13 13:25:06;;;;;;;2.17;0.68;;;;;;;32.41;22.02;97668.59;10459602;28;20047;-76
2023/07/13 13:30:28;;;;;;;2.85;0.60;;;;;;;31.66;22.55;97672.88;10460033;28;20398;-76
2023/07/13 13:35:49;;;;;;;2.88;0.50;;;;;;;31.36;23.89;97654.59;10472936;28;20044;-76
2023/07/13 13:41:12;;;;;;;3.28;0.45;;;;;;;30.88;24.39;97651.00;10486755;28;20475;-76
2023/07/13 13:46:33;;;;;;;1.77;0.57;;;;;;;30.61;24.78;97647.78;10471818;28;20116;-76
2023/07/13 13:51:55;;;;;;;2.15;0.50;;;;;;;30.65;25.44;97658.53;10472111;28;20052;-76
2023/07/13 13:57:16;;;;;;;2.50;0.43;;;;;;;30.83;24.49;97649.66;10471958;28;20048;-76
2023/07/13 14:02:37;;;;;;;3.43;0.60;;;;;;;30.16;24.99;97641.88;10457779;28;20125;-76
2023/07/13 14:07:59;;;;;;;2.05;0.60;;;;;;;29.90;26.02;97660.81;10457479;28;20455;-76
2023/07/13 14:13:21;;;;;;;;;;;;;;;29.37;26.73;97651.97;10500509;28;20375;-76
2023/07/13 14:18:42;;;;;;;2.80;0.50;;;;;;;29.21;26.91;97647.06;10484946;28;19920;-76
2023/07/13 14:24:03;;;;;;;2.05;0.52;;;;;;;29.39;26.48;97642.63;10484287;28;20048;-76
2023/07/13 14:29:25;;;;;;;1.93;0.63;;;;;;;29.37;26.55;97637.59;10470311;28;20248;-76
2023/07/13 14:34:46;;;;;;;;;;;;;;;28.97;27.27;97632.91;10471438;28;20040;-76
2023/07/13 14:40:14;;;;;;;5.95;0.60;;;;;;;28.85;27.31;97641.56;10483831;28;19924;-76
2023/07/13 14:45:35;;;;;;;3.58;0.50;;;;;;;28.88;27.45;97637.97;10498934;28;20032;-76
2023/07/13 14:50:56;;;;;;;1.38;0.50;;;;;;;28.65;27.85;97634.50;10469727;28;20052;-76
2023/07/13 14:56:17;;;;;;;3.20;0.50;;;;;;;28.84;27.84;97634.38;10455910;28;20406;-76
2023/07/13 15:01:38;;;;;;;3.00;0.50;;;;;;;29.05;27.48;97624.94;10455015;28;20036;-76
2023/07/13 15:07:01;;;;;;;1.15;0.50;;;;;;;28.51;27.41;97623.81;10483040;28;20048;-76
2023/07/13 15:12:22;;;;;;;2.67;0.70;;;;;;;28.29;27.66;97634.72;10483499;28;20478;-76
2023/07/13 15:17:44;;;;;;;7.70;0.68;;;;;;;28.74;27.64;97621.53;10455134;28;20441;-76
2023/07/13 15:23:06;;;;;;;2.88;0.63;;;;;;;29.18;27.07;97633.47;10469133;28;20052;-76
2023/07/13 15:28:27;;;;;;;1.27;0.53;;;;;;;29.56;26.81;97643.94;10468954;28;20045;-76
2023/07/13 15:33:49;;;;;;;3.67;0.52;;;;;;;29.64;26.59;97638.81;10482107;28;20310;-76
2023/07/13 15:39:16;;;;;;;1.80;0.50;;;;;;;29.13;26.79;97643.53;10468593;28;20040;-76
2023/07/13 15:44:38;;;;;;;1.90;0.50;;;;;;;28.90;27.39;97645.88;10441194;28;20048;-75
2023/07/13 15:49:59;;;;;;;3.55;0.70;;;;;;;28.92;27.33;97645.84;10482701;28;20454;-76
2023/07/13 15:55:20;;;;;;;2.80;0.60;;;;;;;28.59;27.73;97648.19;10468140;28;20041;-76
2023/07/13 16:00:41;;;;;;;1.60;0.53;;;;;;;28.17;28.39;97673.44;10482182;28;20094;-77
2023/07/13 16:06:02;;;;;;;1.10;0.50;;;;;;;27.85;28.49;97680.00;10467973;28;20075;-76
2023/07/13 16:11:28;;;;;;;2.15;0.60;;;;;;;27.69;28.85;97667.81;10471691;28;20119;-76
2023/07/13 16:16:50;;;;;;;3.40;0.60;;;;;;;27.62;29.14;97667.09;10476233;28;20113;-77
2023/07/13 16:22:16;;;;;;;2.63;0.60;;;;;;;27.53;29.27;97677.84;10489443;28;20068;-77
2023/07/13 16:27:36;;;;;;;5.60;0.80;;;;;;;27.39;29.28;97675.69;10462114;28;20198;-77
2023/07/13 16:33:03;;;;;;;2.88;0.68;;;;;;;27.36;29.71;97673.56;10475346;28;20410;-76
2023/07/13 16:38:28;;;;;;;4.78;0.60;;;;;;;27.41;29.69;97680.75;10477071;28;20071;-76
2023/07/13 16:43:49;;;;;;;2.75;0.60;;;;;;;27.48;29.77;97684.31;10475649;28;20064;-76
2023/07/13 16:49:26;;;;;;;4.75;0.70;;;;;;;27.46;30.00;97692.91;10475410;28;20063;-77
2023/07/13 16:54:47;;;;;;;2.38;0.60;;;;;;;27.75;29.64;97705.09;10475212;28;20446;-77
2023/07/13 17:00:32;;;;;;;2.33;0.83;;;;;;;27.84;29.90;97712.25;10488075;28;20064;-76
2023/07/13 17:05:53;;;;;;;1.85;0.68;;;;;;;27.76;29.71;97718.00;10476493;28;20059;-76
2023/07/13 17:11:15;;;;;;;1.67;0.60;;;;;;;27.46;29.82;97724.44;10487937;28;20071;-77
2023/07/13 17:16:36;;;;;;;2.22;0.60;;;;;;;27.33;30.15;97732.31;10487688;28;20051;-77
2023/07/13 17:21:56;;;;;;;4.45;0.80;;;;;;;27.07;30.30;97725.09;10485938;28;20501;-77
2023/07/13 17:27:17;;;;;;;4.18;0.70;;;;;;;26.81;30.81;97727.88;10473208;28;20047;-76
2023/07/13 17:32:38;;;;;;;0.93;0.47;;;;;;;26.62;30.96;97734.97;10486696;28;20105;-76
2023/07/13 17:37:59;;;;;;;2.72;0.50;;;;;;;26.41;31.32;97745.59;10458782;28;20102;-76
2023/07/13 17:43:20;;;;;;;2.40;0.50;;;;;;;26.19;31.68;97743.31;10472709;28;20052;-76
2023/07/13 17:48:42;;;;;;;2.38;0.50;;;;;;;25.90;31.57;97743.16;10472521;28;20491;-76
2023/07/13 17:54:09;;;;;;;4.03;0.70;;;;;;;25.79;32.22;97749.50;10472056;28;20455;-76
2023/07/13 17:59:31;;;;;;;2.97;0.50;;;;;;;25.76;32.22;97768.03;10444965;28;20048;-76
2023/07/13 18:04:51;;;;;;;3.03;0.60;;;;;;;25.77;32.43;97767.38;10471826;28;20079;-75
2023/07/13 18:10:13;;;;;;;5.60;0.60;;;;;;;25.81;32.73;97773.09;10485486;28;20075;-75
2023/07/13 18:15:34;;;;;;;2.10;0.60;;;;;;;25.73;32.59;97778.75;10457663;28;20044;-75
2023/07/13 18:20:54;;;;;;;6.78;0.68;;;;;;;25.58;32.61;97782.91;10484851;28;20064;-77
2023/07/13 18:26:17;;;;;;;1.85;0.50;;;;;;;25.45;33.07;97782.03;10471028;28;20068;-76
2023/07/13 18:31:37;;;;;;;5.15;0.70;;;;;;;25.36;33.31;97789.09;10456916;28;20044;-77
2023/07/13 18:36:58;;;;;;;3.53;0.50;;;;;;;25.28;33.10;97786.16;10470573;28;20041;-77
2023/07/13 18:42:24;;;;;;;2.75;0.52;;;;;;;25.20;33.70;97786.81;10484316;28;20047;-78
2023/07/13 18:47:54;;;;;;;2.28;0.70;;;;;;;24.98;33.95;97787.25;10470981;28;20040;-75
2023/07/13 18:53:18;;;;;;;3.85;0.70;;;;;;;24.86;33.96;97797.81;10457354;28;20068;-75
2023/07/13 18:58:39;;;;;;;3.45;0.60;;;;;;;24.73;34.64;97806.22;10470308;28;20044;-75
2023/07/13 19:04:01;;;;;;;4.20;0.50;;;;;;;24.64;34.99;97816.09;10469281;28;20143;-76
2023/07/13 19:09:22;;;;;;;1.80;0.65;;;;;;;24.56;34.84;97818.84;10498335;28;20505;-75
2023/07/13 19:14:45;;;;;;;4.10;1.00;;;;;;;24.45;35.32;97840.09;10469373;28;20044;-76
2023/07/13 19:20:16;;;;;;;4.45;0.73;;;;;;;24.31;35.42;97837.75;10470368;28;20067;-75
2023/07/13 19:25:37;;;;;;;2.47;0.77;;;;;;;24.22;35.99;97850.41;10469974;28;20493;-75
2023/07/13 19:30:58;;;;;;;4.53;1.02;;;;;;;24.15;36.18;97855.31;10469063;28;20075;-76
2023/07/13 19:36:20;;;;;;;2.58;0.63;;;;;;;24.01;36.36;97863.63;10468513;28;20458;-75
2023/07/13 19:41:41;;;;;;;2.78;0.60;;;;;;;23.94;36.50;97870.66;10468653;28;20067;-76
2023/07/13 19:47:02;;;;;;;6.60;1.10;;;;;;;23.90;36.74;97879.13;10467523;28;20501;-76
2023/07/13 19:52:27;;;;;;;2.97;0.77;;;;;;;23.83;37.19;97891.81;10468428;28;20064;-76
2023/07/13 19:57:49;;;;;;;5.78;0.77;;;;;;;23.72;37.38;97898.75;10455287;28;20186;-76
2023/07/13 20:03:10;;;;;;;8.07;0.70;;;;;;;23.68;37.56;97905.81;10468010;28;20399;-75
2023/07/13 20:08:30;;;;;;;3.22;0.90;;;;;;;23.63;37.69;97907.13;10468161;28;20402;-76
2023/07/13 20:13:51;;;;;;;4.93;0.93;;;;;;;23.60;37.97;97916.34;10467841;28;20044;-76
2023/07/13 20:19:12;;;;;;;2.45;0.95;;;;;;;23.52;38.07;97922.56;10467945;28;20061;-76
2023/07/13 20:24:33;;;;;;;3.53;1.15;;;;;;;23.48;38.47;97919.66;10481542;28;20065;-76
2023/07/13 20:29:57;;;;;;;2.50;0.60;;;;;;;23.47;38.24;97937.44;10467315;28;20482;-75
2023/07/13 20:35:30;;;;;;;3.85;0.75;;;;;;;23.45;38.68;97932.44;10481190;28;20509;-75
2023/07/13 20:40:51;;;;;;;3.75;0.63;;;;;;;23.43;38.66;97935.22;10481056;28;20051;-75
2023/07/13 20:46:15;;;;;;;2.87;0.57;;;;;;;23.40;38.75;97940.16;10481556;28;20064;-75
2023/07/13 20:51:36;;;;;;;5.80;0.85;;;;;;;23.35;38.63;97943.59;10453615;28;20279;-76
2023/07/13 20:56:57;;;;;;;4.75;0.73;;;;;;;23.31;39.09;97957.75;10483910;28;20044;-75
2023/07/13 21:02:21;;;;;;;3.55;0.70;;;;;;;23.23;39.19;97946.19;10488297;28;20411;-76
2023/07/13 21:07:44;;;;;;;3.53;1.00;;;;;;;23.09;39.45;97947.34;10502645;28;20051;-76
2023/07/13 21:13:07;;;;;;;5.55;0.90;;;;;;;22.99;39.65;97958.53;10488070;28;20052;-76
2023/07/13 21:18:28;;;;;;;2.67;0.80;;;;;;;22.89;40.08;97964.00;10459981;28;20372;-76
2023/07/13 21:23:49;;;;;;;5.80;1.00;;;;;;;22.74;40.12;97962.19;10473678;28;20064;-76
2023/07/13 21:29:12;;;;;;;2.33;0.63;;;;;;;22.63;40.34;97966.91;10474243;28;20456;-76
2023/07/13 21:34:33;;;;;;;2.25;0.60;;;;;;;22.55;40.45;97972.41;10486881;28;20041;-76
2023/07/13 21:39:54;;;;;;;2.78;0.65;;;;;;;22.43;41.09;97970.00;10473250;28;20067;-75
2023/07/13 21:45:23;;;;;;;3.85;0.68;;;;;;;22.38;41.16;97970.56;10472668;28;20063;-76
2023/07/13 21:50:51;;;;;;;2.90;0.70;;;;;;;22.27;41.52;97980.97;10472908;28;20068;-76
2023/07/13 21:56:12;;;;;;;2.17;0.68;;;;;;;22.12;41.42;97973.50;10472976;28;20131;-76
2023/07/13 22:01:33;;;;;;;3.92;0.77;;;;;;;22.00;41.66;97979.53;10472332;28;20076;-76
2023/07/13 22:06:55;;;;;;;3.85;0.77;;;;;;;21.90;41.62;97985.66;10470823;28;20064;-76
2023/07/13 22:12:16;;;;;;;2.03;0.60;;;;;;;21.79;41.86;97975.44;10485884;28;20102;-75
2023/07/13 22:17:40;;;;;;;2.97;0.65;;;;;;;21.66;42.07;97991.41;10500552;28;20477;-76
2023/07/13 22:23:01;;;;;;;9.80;0.80;;;;;;;21.56;42.10;97993.25;10471586;28;20040;-76
2023/07/13 22:28:22;;;;;;;2.03;0.60;;;;;;;21.43;42.03;97992.19;10471205;28;20086;-76
2023/07/13 22:33:43;;;;;;;2.30;0.60;;;;;;;21.33;42.49;97989.78;10484830;28;20101;-76
2023/07/13 22:39:06;;;;;;;3.45;0.65;;;;;;;21.30;42.62;98001.72;10456688;28;20061;-75
2023/07/13 22:44:27;;;;;;;1.95;0.50;;;;;;;21.24;43.05;97995.88;10470514;28;20173;-76
2023/07/13 22:49:47;;;;;;;1.42;0.70;;;;;;;21.22;42.72;98002.19;10469966;28;20119;-76
2023/07/13 22:55:14;;;;;;;3.45;0.65;;;;;;;21.11;43.15;98006.84;10484194;28;20087;-76
2023/07/13 23:00:35;;;;;;;3.67;0.73;;;;;;;20.97;43.29;98002.84;10470401;28;20179;-76
2023/07/13 23:05:55;;;;;;;4.03;0.63;;;;;;;20.74;43.59;98002.16;10469465;28;20079;-75
2023/07/13 23:11:20;;;;;;;6.20;0.57;;;;;;;20.53;43.81;98006.44;10483375;28;20114;-75
2023/07/13 23:16:41;;;;;;;3.90;0.50;;;;;;;20.33;44.08;98010.69;10469439;28;20495;-75
2023/07/13 23:22:03;;;;;;;5.30;0.55;;;;;;;20.15;44.37;98005.84;10483097;28;20050;-76
2023/07/13 23:27:23;;;;;;;7.10;0.57;;;;;;;19.96;44.57;98003.78;10455239;28;20111;-76
2023/07/13 23:32:44;;;;;;;3.33;0.60;;;;;;;19.81;44.60;97999.75;10454989;28;20156;-75
2023/07/13 23:38:08;;;;;;;1.88;0.50;;;;;;;19.67;44.90;98011.28;10468656;28;20070;-75
2023/07/13 23:43:29;;;;;;;3.20;0.50;;;;;;;19.56;45.24;98003.06;10468825;28;20067;-76
2023/07/13 23:48:59;;;;;;;2.55;0.60;;;;;;;19.41;45.25;97999.69;10468447;28;20501;-74
2023/07/13 23:54:19;;;;;;;3.38;0.60;;;;;;;19.32;45.34;98000.78;10454551;28;20068;-74
2023/07/13 23:59:40;;;;;;;3.95;0.55;;;;;;;19.28;45.63;97997.06;10482176;28;20088;-75
